Time;durP1;ratioP1;P1;durP2;ratioP2;P2;SDS_P1;SDS_P2;PMS_P1;PMS_P2;Temp;Humidity;BMP_temperature;BMP_pressure;BME280_temperature;BME280_humidity;BME280_pressure;Samples;Min_cycle;Max_cycle;Signal;HPM_P1;HPM_P2
2023/09/10 00:00:21;;;;;;;108.65;57.35;;;23.20;87.80;;;;;;4968170;28;95276;-46
2023/09/10 00:02:47;;;;;;;108.72;57.53;;;23.20;87.80;;;;;;4950315;28;95008;-46
2023/09/10 00:05:12;;;;;;;108.80;57.33;;;23.20;87.70;;;;;;4953412;28;96485;-47
2023/09/10 00:07:38;;;;;;;109.43;57.47;;;23.20;88.30;;;;;;4970057;28;95189;-49
2023/09/10 00:10:04;;;;;;;108.40;57.22;;;23.10;87.80;;;;;;4962822;28;95533;-47
2023/09/10 00:12:30;;;;;;;108.63;57.58;;;23.10;87.80;;;;;;4962233;28;100089;-48
2023/09/10 00:14:55;;;;;;;109.03;57.42;;;23.10;88.30;;;;;;4964062;28;94895;-47
2023/09/10 00:17:21;;;;;;;109.30;57.70;;;23.10;88.20;;;;;;4974361;28;95786;-46
2023/09/10 00:19:47;;;;;;;108.10;57.10;;;23.10;88.10;;;;;;4964961;28;96184;-47
2023/09/10 00:22:12;;;;;;;108.63;57.28;;;23.10;89.00;;;;;;4970413;28;94930;-46
2023/09/10 00:24:38;;;;;;;109.22;57.92;;;23.10;88.40;;;;;;4969188;28;96905;-45
2023/09/10 00:27:04;;;;;;;107.75;57.17;;;23.00;88.30;;;;;;4964726;28;94987;-46
2023/09/10 00:29:29;;;;;;;108.57;57.17;;;23.00;88.70;;;;;;4966621;28;95092;-47
2023/09/10 00:31:55;;;;;;;108.30;57.63;;;23.00;88.40;;;;;;4969471;28;94779;-46
2023/09/10 00:34:20;;;;;;;108.63;57.92;;;23.00;88.60;;;;;;4964980;28;95699;-47
2023/09/10 00:36:46;;;;;;;108.57;57.72;;;23.00;88.80;;;;;;4961692;28;95505;-47
2023/09/10 00:39:11;;;;;;;109.50;57.92;;;23.00;88.70;;;;;;4967669;28;98932;-48
2023/09/10 00:41:37;;;;;;;109.40;57.95;;;22.90;88.70;;;;;;4968582;28;95163;-46
2023/09/10 00:44:03;;;;;;;109.47;57.70;;;22.90;88.90;;;;;;4971447;28;96509;-47
2023/09/10 00:46:29;;;;;;;108.47;57.70;;;22.90;89.10;;;;;;4957548;28;95335;-47
2023/09/10 00:48:56;;;;;;;108.95;57.75;;;22.90;88.90;;;;;;4961224;28;94768;-48
2023/09/10 00:51:21;;;;;;;109.32;58.00;;;22.90;89.00;;;;;;4961548;28;94006;-46
2023/09/10 00:53:49;;;;;;;108.53;57.85;;;22.90;89.00;;;;;;4965852;28;94700;-46
2023/09/10 00:56:15;;;;;;;107.65;57.00;;;22.90;89.10;;;;;;4967382;28;98225;-48
2023/09/10 00:58:41;;;;;;;107.93;57.05;;;22.90;89.50;;;;;;4965402;28;96628;-47
2023/09/10 01:01:08;;;;;;;109.78;57.65;;;22.90;89.30;;;;;;4977245;28;95274;-48
2023/09/10 01:03:35;;;;;;;108.75;57.60;;;22.80;89.20;;;;;;4963182;28;94483;-47
2023/09/10 01:06:01;;;;;;;108.15;57.80;;;22.80;89.50;;;;;;4964261;28;95205;-48
2023/09/10 01:11:54;;;;;;;108.63;57.55;;;22.80;89.60;;;;;;4923028;26;95889;-75
2023/09/10 01:18:32;;;;;;;108.80;57.78;;;22.70;89.60;;;;;;4899976;28;94370;-75
2023/09/10 01:21:34;;;;;;;108.28;57.22;;;22.70;89.70;;;;;;4921668;28;94748;-75
2023/09/10 01:24:38;;;;;;;108.03;57.60;;;22.70;89.90;;;;;;4926872;28;95731;-76
2023/09/10 01:27:23;;;;;;;109.05;57.80;;;22.70;89.90;;;;;;4928780;28;95678;-76
2023/09/10 01:30:10;;;;;;;109.47;57.80;;;22.70;90.00;;;;;;4932935;28;95592;-76
2023/09/10 01:32:46;;;;;;;108.78;57.47;;;22.70;89.90;;;;;;4928829;28;95561;-76
2023/09/10 01:35:40;;;;;;;108.28;57.83;;;22.70;90.00;;;;;;4928381;28;97682;-76
2023/09/10 01:38:34;;;;;;;108.60;57.40;;;22.60;90.00;;;;;;4936390;28;96589;-76
2023/09/10 01:41:09;;;;;;;108.85;57.38;;;22.60;90.20;;;;;;4919152;28;95698;-76
2023/09/10 01:43:51;;;;;;;109.30;57.70;;;22.60;90.10;;;;;;4932056;28;94329;-76
2023/09/10 01:46:27;;;;;;;108.85;57.35;;;22.60;90.20;;;;;;4923957;28;96181;-77
2023/09/10 01:48:56;;;;;;;109.40;58.15;;;22.60;90.40;;;;;;4928524;28;95684;-76
2023/09/10 01:52:02;;;;;;;109.03;58.03;;;22.50;90.20;;;;;;4933322;28;99417;-76
2023/09/10 01:54:32;;;;;;;108.25;57.50;;;22.60;90.30;;;;;;4849789;28;95788;-75
2023/09/10 01:57:32;;;;;;;109.72;58.00;;;22.50;90.60;;;;;;4857048;28;94728;-76
2023/09/10 02:00:07;;;;;;;109.13;57.80;;;22.50;90.30;;;;;;4859356;28;94795;-76
2023/09/10 02:02:33;;;;;;;109.07;57.72;;;22.50;90.30;;;;;;4887927;28;99640;-76
2023/09/10 02:05:32;;;;;;;108.45;57.92;;;22.50;90.40;;;;;;4930684;28;96180;-76
2023/09/10 02:08:05;;;;;;;108.25;57.38;;;22.50;90.40;;;;;;4921458;28;98925;-77
2023/09/10 02:10:36;;;;;;;108.90;57.85;;;22.50;90.40;;;;;;4934895;28;94498;-77
2023/09/10 02:13:20;;;;;;;;;;;22.50;90.50;;;;;;4925379;28;97203;-76
2023/09/10 02:15:54;;;;;;;108.38;57.25;;;22.40;90.40;;;;;;4917501;28;99604;-76
2023/09/10 02:18:41;;;;;;;108.60;57.70;;;22.40;90.50;;;;;;4930585;28;94502;-77
2023/09/10 02:21:13;;;;;;;107.50;56.97;;;22.40;90.50;;;;;;4920831;28;96251;-76
2023/09/10 02:24:02;;;;;;;108.30;57.63;;;22.40;90.60;;;;;;4935743;28;94891;-76
2023/09/10 02:26:34;;;;;;;108.05;57.60;;;22.40;90.60;;;;;;4928261;28;95342;-76
2023/09/10 02:29:05;;;;;;;109.55;58.17;;;22.40;90.60;;;;;;4926701;28;94194;-76
2023/09/10 02:32:06;;;;;;;108.75;57.78;;;22.40;90.50;;;;;;4930405;28;95283;-76
2023/09/10 02:34:32;;;;;;;108.05;57.95;;;22.40;90.60;;;;;;4929754;28;95385;-76
2023/09/10 02:37:11;;;;;;;108.50;57.67;;;22.30;90.70;;;;;;4897459;28;95138;-76
2023/09/10 02:39:41;;;;;;;107.97;57.53;;;22.30;90.70;;;;;;4925273;28;93820;-76
2023/09/10 02:42:09;;;;;;;107.97;56.75;;;22.30;90.70;;;;;;4934598;28;96389;-76
2023/09/10 02:44:35;;;;;;;107.35;57.13;;;22.30;91.00;;;;;;4914359;28;96200;-76
2023/09/10 02:47:01;;;;;;;108.35;57.17;;;22.30;90.90;;;;;;4933796;28;95788;-76
2023/09/10 02:49:33;;;;;;;110.60;58.03;;;22.30;90.90;;;;;;4925904;28;95498;-75
2023/09/10 02:51:58;;;;;;;108.20;57.75;;;22.30;90.80;;;;;;4932755;28;95919;-77
2023/09/10 02:54:24;;;;;;;108.43;57.72;;;22.30;90.90;;;;;;4924501;28;94617;-75
2023/09/10 02:56:50;;;;;;;109.15;58.10;;;22.20;90.90;;;;;;4933319;28;98312;-75
2023/09/10 02:59:26;;;;;;;108.10;57.95;;;22.20;90.90;;;;;;4923825;28;97261;-75
2023/09/10 03:01:52;;;;;;;108.05;57.70;;;22.20;90.90;;;;;;4899807;28;96397;-75
2023/09/10 03:04:18;;;;;;;107.57;57.33;;;22.20;90.90;;;;;;4922731;28;97970;-75
2023/09/10 03:06:45;;;;;;;108.28;57.78;;;22.20;90.90;;;;;;4925581;28;94326;-74
2023/09/10 03:09:11;;;;;;;107.10;57.08;;;22.20;90.90;;;;;;4936988;28;96473;-75
2023/09/10 03:11:38;;;;;;;107.72;57.53;;;22.20;91.00;;;;;;4931539;28;95843;-76
2023/09/10 03:14:05;;;;;;;107.95;57.95;;;22.20;90.90;;;;;;4933192;28;97024;-75
2023/09/10 03:16:32;;;;;;;108.07;57.45;;;22.10;91.20;;;;;;4926979;28;95094;-75
2023/09/10 03:18:58;;;;;;;108.38;57.50;;;22.10;91.10;;;;;;4928659;28;95832;-75
2023/09/10 03:21:24;;;;;;;106.65;56.55;;;22.10;91.20;;;;;;4920204;28;94790;-75
2023/09/10 03:23:50;;;;;;;108.60;57.92;;;22.10;91.10;;;;;;4906525;28;94288;-76
2023/09/10 03:26:16;;;;;;;107.85;57.22;;;22.10;91.20;;;;;;4898015;28;94267;-75
2023/09/10 03:28:41;;;;;;;107.32;56.88;;;22.10;91.20;;;;;;4927803;28;94389;-74
2023/09/10 03:31:07;;;;;;;107.03;57.53;;;22.10;91.20;;;;;;4908588;28;94838;-75
2023/09/10 03:33:32;;;;;;;108.75;57.30;;;22.10;91.10;;;;;;4902511;28;96235;-76
2023/09/10 03:35:58;;;;;;;108.10;57.60;;;22.10;91.00;;;;;;4935460;28;96088;-75
2023/09/10 03:38:24;;;;;;;108.75;57.92;;;22.10;91.20;;;;;;4929479;28;95631;-76
2023/09/10 03:40:50;;;;;;;109.15;57.60;;;22.10;91.10;;;;;;4930312;28;94967;-76
2023/09/10 03:43:16;;;;;;;108.68;57.78;;;22.10;91.10;;;;;;4925010;28;94577;-76
2023/09/10 03:45:42;;;;;;;108.00;57.92;;;22.10;91.10;;;;;;4933048;28;94224;-76
2023/09/10 03:48:08;;;;;;;107.72;57.55;;;22.10;91.00;;;;;;4930519;28;94709;-76
2023/09/10 03:50:34;;;;;;;107.82;57.60;;;22.10;91.50;;;;;;4920311;28;95227;-76
2023/09/10 03:53:00;;;;;;;107.95;57.95;;;22.00;91.10;;;;;;4933529;28;94838;-76
2023/09/10 03:55:26;;;;;;;108.03;57.63;;;22.00;91.00;;;;;;4929461;28;94424;-76
2023/09/10 03:57:51;;;;;;;109.03;58.15;;;22.00;91.00;;;;;;4914973;28;96775;-76
2023/09/10 04:00:19;;;;;;;107.72;56.92;;;22.00;91.20;;;;;;4920804;28;96312;-76
2023/09/10 04:02:45;;;;;;;107.25;57.58;;;22.00;91.20;;;;;;4922665;28;95429;-75
2023/09/10 04:05:11;;;;;;;108.03;57.78;;;22.00;91.20;;;;;;4921083;28;95336;-76
2023/09/10 04:07:37;;;;;;;109.57;57.92;;;22.00;91.20;;;;;;4935878;28;94498;-76
2023/09/10 04:10:03;;;;;;;107.95;57.85;;;22.00;91.20;;;;;;4930172;28;94806;-76
2023/09/10 04:12:29;;;;;;;109.85;57.53;;;21.90;91.10;;;;;;4929645;28;94958;-76
2023/09/10 04:14:54;;;;;;;108.22;57.08;;;21.90;91.30;;;;;;4916314;28;97977;-75
2023/09/10 04:17:20;;;;;;;107.70;57.35;;;21.90;91.10;;;;;;4938271;28;93359;-76
2023/09/10 04:19:45;;;;;;;108.70;57.60;;;21.90;91.30;;;;;;4929721;28;96424;-76
2023/09/10 04:22:11;;;;;;;111.18;58.05;;;21.90;91.30;;;;;;4932022;28;94913;-76
2023/09/10 04:24:37;;;;;;;108.22;57.67;;;21.90;91.30;;;;;;4919512;28;96011;-75
2023/09/10 04:27:03;;;;;;;108.65;58.22;;;21.90;91.40;;;;;;4940615;28;94588;-76
2023/09/10 04:29:29;;;;;;;107.68;57.90;;;21.90;91.40;;;;;;4934812;28;97143;-77
2023/09/10 04:31:56;;;;;;;108.53;57.78;;;21.90;91.60;;;;;;4928902;28;94572;-76
2023/09/10 04:34:22;;;;;;;111.63;57.53;;;21.90;91.30;;;;;;4938012;28;94349;-76
2023/09/10 04:36:48;;;;;;;108.60;57.58;;;21.80;91.50;;;;;;4930079;28;94988;-75
2023/09/10 04:39:13;;;;;;;111.13;57.75;;;21.80;91.60;;;;;;4936932;28;94567;-75
2023/09/10 04:41:39;;;;;;;107.57;57.03;;;21.80;91.40;;;;;;4925284;28;94977;-75
2023/09/10 04:44:06;;;;;;;107.97;57.65;;;21.80;91.60;;;;;;4937262;28;94267;-75
2023/09/10 04:46:31;;;;;;;109.40;58.28;;;21.80;91.50;;;;;;4931534;28;94124;-75
2023/09/10 04:48:58;;;;;;;107.75;57.00;;;21.80;91.30;;;;;;4932638;28;96493;-75
2023/09/10 04:51:23;;;;;;;109.93;57.72;;;21.80;91.80;;;;;;4905832;28;95031;-75
2023/09/10 04:53:49;;;;;;;109.30;57.60;;;21.80;91.40;;;;;;4930642;28;94345;-76
2023/09/10 04:56:14;;;;;;;109.82;58.00;;;21.80;91.70;;;;;;4929822;28;94354;-76
2023/09/10 04:58:40;;;;;;;108.43;57.55;;;21.80;91.50;;;;;;4912220;28;97557;-75
2023/09/10 05:01:06;;;;;;;108.80;57.63;;;21.70;91.40;;;;;;4932891;28;95141;-75
2023/09/10 05:03:32;;;;;;;108.30;57.58;;;21.80;91.70;;;;;;4921641;28;97253;-76
2023/09/10 05:06:01;;;;;;;106.50;56.80;;;21.70;91.80;;;;;;4928119;28;93975;-76
2023/09/10 05:08:27;;;;;;;108.55;58.17;;;21.70;91.60;;;;;;4927908;28;95804;-75
2023/09/10 05:10:54;;;;;;;109.72;57.92;;;21.70;91.60;;;;;;4932168;28;96594;-76
2023/09/10 05:13:20;;;;;;;107.70;57.47;;;21.70;91.70;;;;;;4918865;28;96848;-76
2023/09/10 05:15:49;;;;;;;108.57;57.17;;;21.70;91.80;;;;;;4931033;28;94268;-75
2023/09/10 05:18:15;;;;;;;107.82;57.15;;;21.70;91.80;;;;;;4929750;28;98330;-76
2023/09/10 05:20:41;;;;;;;109.38;57.55;;;21.70;91.70;;;;;;4925499;28;97739;-76
2023/09/10 05:23:07;;;;;;;108.65;57.67;;;21.70;91.60;;;;;;4935264;28;95636;-76
2023/09/10 05:25:38;;;;;;;107.53;57.45;;;21.70;91.70;;;;;;4929061;28;95220;-76
2023/09/10 05:28:04;;;;;;;107.43;57.53;;;21.70;91.60;;;;;;4916586;28;95714;-75
2023/09/10 05:30:30;;;;;;;109.30;57.63;;;21.70;91.90;;;;;;4932266;28;94443;-75
2023/09/10 05:32:59;;;;;;;109.30;58.15;;;21.70;91.90;;;;;;4937821;28;94291;-76
2023/09/10 05:35:24;;;;;;;106.82;57.00;;;21.70;91.90;;;;;;4926365;28;95833;-76
2023/09/10 05:37:50;;;;;;;107.80;57.40;;;21.70;91.90;;;;;;4919523;28;95958;-76
2023/09/10 05:40:15;;;;;;;108.00;57.22;;;21.70;92.00;;;;;;4928431;28;99391;-76
2023/09/10 05:42:42;;;;;;;107.20;57.28;;;21.70;92.00;;;;;;4931970;28;94615;-76
2023/09/10 05:45:08;;;;;;;106.85;57.22;;;21.70;92.00;;;;;;4933155;28;94865;-75
2023/09/10 05:47:33;;;;;;;108.03;57.50;;;21.70;92.00;;;;;;4926898;28;95431;-75
2023/09/10 05:50:00;;;;;;;108.03;57.53;;;21.70;91.90;;;;;;4927571;28;99881;-76
2023/09/10 05:52:26;;;;;;;107.32;57.40;;;21.70;91.80;;;;;;4921373;28;96528;-75
2023/09/10 05:54:52;;;;;;;107.55;57.67;;;21.70;91.80;;;;;;4933561;28;94813;-76
2023/09/10 05:57:17;;;;;;;106.88;56.97;;;21.70;91.80;;;;;;4921894;28;95989;-76
2023/09/10 05:59:43;;;;;;;107.35;57.13;;;21.70;91.80;;;;;;4932996;28;95522;-75
2023/09/10 06:02:09;;;;;;;108.03;57.70;;;21.70;92.00;;;;;;4922701;28;95276;-76
2023/09/10 06:04:34;;;;;;;107.78;57.30;;;21.80;92.00;;;;;;4933401;28;94438;-75
2023/09/10 06:07:03;;;;;;;108.72;58.10;;;21.70;91.80;;;;;;4926824;28;94338;-76
2023/09/10 06:09:30;;;;;;;107.68;57.42;;;21.70;91.70;;;;;;4934531;28;94686;-76
2023/09/10 06:11:56;;;;;;;108.53;57.97;;;21.80;91.80;;;;;;4916528;28;95122;-76
2023/09/10 06:14:22;;;;;;;108.05;57.72;;;21.80;91.70;;;;;;4926871;28;94461;-75
2023/09/10 06:16:47;;;;;;;107.60;57.40;;;21.80;91.70;;;;;;4930142;28;97329;-76
2023/09/10 06:19:14;;;;;;;108.15;57.83;;;21.80;91.70;;;;;;4934145;28;95166;-76
2023/09/10 06:21:40;;;;;;;107.20;57.17;;;21.80;92.10;;;;;;4924045;28;96680;-75
2023/09/10 06:24:06;;;;;;;106.68;56.95;;;21.80;91.80;;;;;;4930518;28;95545;-76
2023/09/10 06:26:32;;;;;;;107.50;57.58;;;21.80;92.00;;;;;;4933314;28;95662;-75
2023/09/10 06:28:58;;;;;;;108.00;57.17;;;21.90;91.70;;;;;;4928684;28;95994;-76
2023/09/10 06:31:23;;;;;;;107.10;57.03;;;21.90;91.90;;;;;;4930553;28;94501;-75
2023/09/10 06:33:49;;;;;;;106.88;57.10;;;21.90;91.70;;;;;;4922589;28;96561;-76
2023/09/10 06:36:15;;;;;;;107.35;57.25;;;21.90;91.70;;;;;;4900311;28;97630;-75
2023/09/10 06:38:47;;;;;;;107.70;57.30;;;21.90;92.00;;;;;;4911603;28;95038;-75
2023/09/10 06:41:16;;;;;;;108.85;58.13;;;22.00;91.70;;;;;;4923332;28;94304;-76
2023/09/10 06:43:42;;;;;;;107.22;56.95;;;22.00;91.80;;;;;;4916162;28;98161;-75
2023/09/10 06:46:08;;;;;;;108.20;57.75;;;22.00;91.70;;;;;;4928374;28;95441;-76
2023/09/10 06:48:34;;;;;;;108.05;56.97;;;22.10;91.60;;;;;;4933277;28;95812;-76
2023/09/10 06:51:01;;;;;;;107.30;56.88;;;22.10;91.70;;;;;;4897775;28;95491;-76
2023/09/10 06:53:35;;;;;;;107.25;57.13;;;22.10;91.90;;;;;;4927177;28;94995;-75
2023/09/10 06:56:01;;;;;;;108.72;57.47;;;22.10;91.80;;;;;;4912394;28;95950;-76
2023/09/10 06:58:26;;;;;;;107.35;57.33;;;22.20;91.60;;;;;;4923081;28;94402;-76
2023/09/10 07:00:52;;;;;;;106.55;56.92;;;22.20;91.30;;;;;;4927218;28;94849;-76
2023/09/10 07:03:18;;;;;;;107.88;57.22;;;22.20;91.70;;;;;;4923795;28;95286;-76
2023/09/10 07:05:43;;;;;;;107.45;56.85;;;22.20;91.50;;;;;;4931076;28;95398;-76
2023/09/10 07:08:13;;;;;;;108.18;57.55;;;22.30;91.70;;;;;;4928500;28;95968;-75
2023/09/10 07:10:39;;;;;;;109.00;57.90;;;22.30;91.40;;;;;;4915405;28;96053;-76
2023/09/10 07:13:06;;;;;;;108.10;57.38;;;22.30;90.50;;;;;;4925972;28;95120;-76
2023/09/10 07:15:32;;;;;;;107.80;57.10;;;22.40;90.60;;;;;;4930486;28;96485;-76
2023/09/10 07:17:58;;;;;;;106.97;56.72;;;22.40;91.60;;;;;;4926665;28;95306;-77
2023/09/10 07:20:24;;;;;;;107.10;56.72;;;22.40;91.00;;;;;;4927333;28;95046;-76
2023/09/10 07:22:49;;;;;;;108.30;57.28;;;22.40;91.40;;;;;;4925958;28;95460;-75
2023/09/10 07:25:15;;;;;;;107.65;57.33;;;22.50;91.00;;;;;;4930851;28;95658;-75
2023/09/10 07:27:40;;;;;;;107.97;57.15;;;22.60;90.70;;;;;;4933672;28;96855;-75
2023/09/10 07:30:07;;;;;;;108.68;58.03;;;22.60;91.70;;;;;;4935737;28;94673;-78
2023/09/10 07:32:32;;;;;;;108.50;57.15;;;22.60;90.40;;;;;;4930023;28;94225;-76
2023/09/10 07:34:58;;;;;;;110.03;57.92;;;22.70;91.40;;;;;;4936368;28;94766;-75
2023/09/10 07:37:23;;;;;;;108.50;57.63;;;22.70;90.20;;;;;;4933205;28;96444;-76
2023/09/10 07:39:49;;;;;;;107.85;56.75;;;22.80;90.80;;;;;;4929721;28;98591;-73
2023/09/10 07:42:15;;;;;;;107.70;57.08;;;22.80;90.90;;;;;;4927514;28;95202;-75
2023/09/10 07:44:41;;;;;;;108.50;57.03;;;22.90;90.70;;;;;;4930056;28;95337;-73
2023/09/10 07:47:07;;;;;;;108.93;57.78;;;22.90;90.80;;;;;;4934506;28;96008;-75
2023/09/10 07:49:33;;;;;;;109.65;57.92;;;23.00;90.20;;;;;;4920068;28;94774;-74
2023/09/10 07:51:58;;;;;;;108.57;57.53;;;23.00;90.20;;;;;;4931548;28;94958;-74
2023/09/10 07:54:24;;;;;;;108.32;57.33;;;23.10;90.40;;;;;;4923572;28;94437;-76
2023/09/10 07:56:50;;;;;;;108.43;56.95;;;23.10;90.70;;;;;;4916232;28;95739;-75
2023/09/10 07:59:15;;;;;;;109.50;57.70;;;23.20;90.50;;;;;;4916493;28;96568;-75
2023/09/10 08:01:41;;;;;;;108.38;57.38;;;23.20;89.60;;;;;;4922643;28;94945;-76
2023/09/10 08:04:06;;;;;;;108.50;57.30;;;23.20;89.80;;;;;;4926184;28;95398;-74
2023/09/10 08:06:32;;;;;;;108.95;57.47;;;23.30;90.20;;;;;;4915808;28;97241;-75
2023/09/10 08:08:58;;;;;;;108.43;57.28;;;23.30;89.80;;;;;;4926980;28;95475;-75
2023/09/10 08:11:23;;;;;;;109.22;57.50;;;23.30;89.90;;;;;;4925077;28;94369;-74
2023/09/10 08:13:50;;;;;;;108.88;57.30;;;23.40;89.30;;;;;;4911263;28;101473;-74
2023/09/10 08:16:17;;;;;;;108.70;57.53;;;23.40;89.20;;;;;;4920368;28;95593;-75
2023/09/10 08:18:44;;;;;;;109.22;57.47;;;23.50;88.80;;;;;;4935731;28;95505;-74
2023/09/10 08:21:11;;;;;;;109.13;57.38;;;23.50;89.30;;;;;;4929566;28;94984;-75
2023/09/10 08:23:36;;;;;;;109.60;57.97;;;23.50;89.60;;;;;;4965377;22;95172;-41
2023/09/10 08:26:02;;;;;;;109.18;58.03;;;23.60;89.10;;;;;;4964652;28;97620;-39
2023/09/10 08:28:29;;;;;;;108.65;57.58;;;23.60;89.00;;;;;;4972411;28;96299;-42
2023/09/10 08:30:55;;;;;;;108.57;57.45;;;23.60;88.50;;;;;;4952922;28;94940;-42
2023/09/10 08:33:21;;;;;;;108.35;57.42;;;23.60;88.40;;;;;;4964123;28;97378;-40
2023/09/10 08:35:49;;;;;;;108.88;57.67;;;23.70;88.60;;;;;;4965804;28;95963;-43
2023/09/10 08:38:16;;;;;;;108.55;57.33;;;23.70;88.80;;;;;;4971002;28;94774;-44
2023/09/10 08:41:00;;;;;;;109.50;57.88;;;23.70;88.00;;;;;;4973564;28;96185;-42
2023/09/10 08:43:44;;;;;;;108.82;57.70;;;23.80;87.90;;;;;;4964168;28;95493;-43
2023/09/10 08:46:10;;;;;;;109.63;57.80;;;23.80;87.80;;;;;;4971326;28;94893;-44
2023/09/10 08:48:41;;;;;;;109.85;57.70;;;23.90;87.50;;;;;;4970943;28;95470;-43
2023/09/10 08:51:08;;;;;;;109.43;57.65;;;23.90;87.30;;;;;;4961443;28;95112;-44
2023/09/10 08:53:36;;;;;;;109.80;58.05;;;23.90;87.00;;;;;;4972354;28;96141;-46
2023/09/10 08:56:03;;;;;;;110.00;58.08;;;24.00;86.90;;;;;;4964959;28;97008;-43
2023/09/10 08:58:30;;;;;;;109.07;57.58;;;24.00;86.80;;;;;;4972356;28;96426;-45
2023/09/10 09:00:57;;;;;;;109.03;57.70;;;24.10;86.50;;;;;;4970166;28;95027;-43
2023/09/10 09:03:23;;;;;;;108.90;57.83;;;24.10;86.10;;;;;;4972041;28;94806;-42
2023/09/10 09:05:51;;;;;;;109.55;57.90;;;24.10;85.90;;;;;;4969735;28;95113;-43
2023/09/10 09:08:23;;;;;;;109.00;57.85;;;24.10;85.80;;;;;;4943017;28;95259;-44
2023/09/10 09:10:50;;;;;;;109.68;58.13;;;24.20;85.50;;;;;;4970221;28;93977;-45
2023/09/10 09:13:17;;;;;;;109.95;57.95;;;24.20;85.50;;;;;;4958091;28;96103;-43
2023/09/10 09:15:44;;;;;;;110.65;57.72;;;24.30;85.20;;;;;;4968634;28;96224;-43
2023/09/10 09:18:14;;;;;;;109.55;57.80;;;24.30;84.70;;;;;;4963557;28;96496;-43
2023/09/10 09:20:47;;;;;;;109.30;57.70;;;24.40;84.50;;;;;;4952751;28;95771;-43
2023/09/10 09:23:19;;;;;;;110.00;57.90;;;24.40;84.20;;;;;;4953329;28;95418;-44
2023/09/10 09:25:45;;;;;;;109.40;57.78;;;24.40;84.30;;;;;;4932940;28;95092;-44
2023/09/10 09:28:12;;;;;;;109.68;58.15;;;24.40;83.90;;;;;;4951007;28;95177;-43
2023/09/10 09:30:38;;;;;;;110.03;57.80;;;24.50;83.80;;;;;;4947260;28;95358;-44
2023/09/10 09:33:04;;;;;;;110.32;57.92;;;24.50;83.80;;;;;;4951752;28;99200;-43
2023/09/10 09:35:33;;;;;;;109.50;57.83;;;24.50;83.10;;;;;;4927568;28;95406;-47
2023/09/10 09:38:05;;;;;;;109.63;57.72;;;24.60;83.30;;;;;;4948446;28;94790;-44
2023/09/10 09:40:30;;;;;;;109.90;57.90;;;24.60;83.10;;;;;;4944167;28;98078;-44
2023/09/10 09:42:57;;;;;;;110.18;58.03;;;24.60;82.80;;;;;;4934376;28;97142;-44
2023/09/10 09:45:24;;;;;;;111.88;58.47;;;24.70;82.50;;;;;;4943569;28;96839;-43
2023/09/10 09:47:50;;;;;;;109.88;57.88;;;24.70;82.60;;;;;;4945313;28;95144;-43
2023/09/10 09:50:15;;;;;;;109.90;57.72;;;24.70;82.30;;;;;;4938612;28;97293;-43
2023/09/10 09:52:41;;;;;;;110.43;58.15;;;24.80;82.50;;;;;;4949920;28;94717;-44
2023/09/10 09:55:08;;;;;;;111.13;58.13;;;24.80;82.20;;;;;;4947102;28;95148;-44
2023/09/10 09:57:37;;;;;;;111.00;58.15;;;24.80;81.80;;;;;;4943064;28;95493;-45
2023/09/10 10:00:10;;;;;;;110.60;58.33;;;24.90;81.50;;;;;;4947184;28;94599;-44
2023/09/10 10:02:37;;;;;;;110.15;58.15;;;24.90;81.30;;;;;;4943424;28;95565;-47
2023/09/10 10:05:04;;;;;;;110.38;58.33;;;25.00;81.00;;;;;;4942589;28;96167;-43
2023/09/10 10:07:30;;;;;;;110.30;58.25;;;25.00;80.60;;;;;;4923435;28;98946;-43
2023/09/10 10:09:58;;;;;;;110.32;58.38;;;25.00;80.70;;;;;;4949692;28;94839;-43
2023/09/10 10:12:25;;;;;;;111.10;58.50;;;25.10;80.30;;;;;;4943250;28;97201;-43
2023/09/10 10:14:52;;;;;;;110.38;57.95;;;25.10;80.00;;;;;;4944251;28;95065;-46
2023/09/10 10:17:19;;;;;;;110.95;58.45;;;25.20;80.50;;;;;;4930201;28;95443;-44
2023/09/10 10:19:46;;;;;;;110.45;58.20;;;25.20;79.70;;;;;;4946439;28;96370;-45
2023/09/10 10:22:12;;;;;;;110.57;58.28;;;25.20;80.10;;;;;;4944403;28;97373;-44
2023/09/10 10:24:39;;;;;;;111.10;58.45;;;25.30;79.00;;;;;;4944452;28;94638;-43
2023/09/10 10:27:06;;;;;;;111.53;58.58;;;25.30;79.40;;;;;;4949506;28;95267;-44
2023/09/10 10:29:33;;;;;;;111.35;58.75;;;25.30;79.10;;;;;;4924203;28;95639;-45
2023/09/10 10:32:05;;;;;;;111.05;58.33;;;25.40;79.20;;;;;;4944579;28;101969;-42
2023/09/10 10:34:38;;;;;;;111.15;58.78;;;25.40;78.80;;;;;;4951152;28;96061;-44
2023/09/10 10:37:11;;;;;;;112.47;58.92;;;25.40;78.50;;;;;;4943762;28;98840;-43
2023/09/10 10:39:42;;;;;;;111.55;58.53;;;25.50;78.40;;;;;;4946608;28;95012;-44
2023/09/10 10:42:10;;;;;;;112.50;58.83;;;25.50;78.50;;;;;;4944923;28;99272;-44
2023/09/10 10:44:38;;;;;;;111.35;58.40;;;25.60;78.10;;;;;;4947446;28;96508;-44
2023/09/10 10:47:09;;;;;;;111.35;58.72;;;25.60;77.90;;;;;;4939096;28;99647;-43
2023/09/10 10:49:38;;;;;;;111.72;58.65;;;25.60;77.80;;;;;;4956364;28;95096;-44
2023/09/10 10:52:08;;;;;;;111.53;58.78;;;25.60;77.10;;;;;;4949517;28;99529;-43
2023/09/10 10:54:36;;;;;;;111.50;58.53;;;25.70;77.20;;;;;;4941715;28;95798;-43
2023/09/10 10:57:06;;;;;;;111.13;58.28;;;25.70;77.00;;;;;;4951419;28;95639;-47
2023/09/10 10:59:32;;;;;;;111.57;58.45;;;25.70;76.80;;;;;;4953482;28;95008;-44
2023/09/10 11:02:22;;;;;;;111.82;58.53;;;25.80;76.80;;;;;;4943687;28;95944;-42
2023/09/10 11:05:05;;;;;;;111.90;58.80;;;25.80;76.50;;;;;;4948300;28;95893;-45
2023/09/10 11:07:32;;;;;;;111.25;58.22;;;25.80;76.30;;;;;;4948906;28;97516;-44
2023/09/10 11:09:59;;;;;;;112.85;58.60;;;25.80;76.10;;;;;;4943938;28;95250;-43
2023/09/10 11:12:25;;;;;;;111.60;58.72;;;25.90;76.10;;;;;;4948415;28;100619;-43
2023/09/10 11:14:59;;;;;;;111.68;58.70;;;25.90;75.90;;;;;;4943865;28;94859;-43
2023/09/10 11:17:32;;;;;;;111.57;58.65;;;25.90;75.90;;;;;;4946175;28;97323;-45
2023/09/10 11:19:57;;;;;;;111.60;58.83;;;26.00;75.70;;;;;;4944106;28;95893;-42
2023/09/10 11:22:23;;;;;;;111.75;58.63;;;26.00;75.50;;;;;;4943956;28;96422;-44
2023/09/10 11:25:05;;;;;;;111.43;58.67;;;26.00;75.60;;;;;;4938837;28;96344;-43
2023/09/10 11:27:33;;;;;;;112.72;59.42;;;26.10;75.30;;;;;;4940450;28;97235;-44
2023/09/10 11:30:13;;;;;;;111.47;58.70;;;26.10;75.00;;;;;;4948518;28;95154;-43
2023/09/10 11:32:40;;;;;;;112.20;58.70;;;26.10;75.10;;;;;;4943917;28;95907;-43
2023/09/10 11:35:18;;;;;;;112.28;58.60;;;26.20;74.90;;;;;;4943604;28;98858;-43
2023/09/10 11:37:48;;;;;;;112.28;59.03;;;26.20;74.70;;;;;;4947926;28;94741;-42
2023/09/10 11:40:14;;;;;;;111.65;58.92;;;26.20;74.70;;;;;;4940982;28;94786;-43
2023/09/10 11:42:44;;;;;;;112.40;58.85;;;26.20;74.80;;;;;;4944358;28;102404;-43
2023/09/10 11:45:10;;;;;;;111.40;58.90;;;26.30;74.40;;;;;;4944663;28;96039;-44
2023/09/10 11:47:40;;;;;;;111.85;58.60;;;26.30;74.10;;;;;;4947898;28;98065;-43
2023/09/10 11:50:07;;;;;;;111.82;59.00;;;26.30;74.10;;;;;;4942433;28;98030;-44
2023/09/10 11:52:34;;;;;;;112.07;58.78;;;26.30;74.00;;;;;;4943946;28;99539;-43
2023/09/10 11:55:00;;;;;;;112.60;58.90;;;26.30;73.80;;;;;;4948191;28;95978;-42
2023/09/10 11:57:25;;;;;;;111.93;59.13;;;26.40;73.90;;;;;;4940528;28;96690;-42
2023/09/10 11:59:51;;;;;;;112.68;59.47;;;26.40;73.50;;;;;;4946880;28;95750;-45
2023/09/10 12:02:20;;;;;;;111.70;58.88;;;26.40;73.60;;;;;;4939699;28;95868;-42
2023/09/10 12:04:46;;;;;;;111.38;58.70;;;26.40;73.40;;;;;;4945697;28;94667;-43
2023/09/10 12:07:12;;;;;;;111.95;58.90;;;26.50;73.20;;;;;;4938234;28;100213;-43
2023/09/10 12:09:40;;;;;;;112.28;59.28;;;26.50;73.10;;;;;;4941442;28;97144;-42
2023/09/10 12:12:12;;;;;;;111.45;58.78;;;26.60;73.10;;;;;;4939517;28;99161;-42
2023/09/10 12:14:38;;;;;;;112.20;58.83;;;26.50;72.90;;;;;;4936341;28;96041;-43
2023/09/10 12:17:04;;;;;;;111.82;58.78;;;26.60;72.80;;;;;;4941712;28;95290;-43
2023/09/10 12:19:31;;;;;;;111.88;59.00;;;26.60;72.40;;;;;;4942677;28;94794;-44
2023/09/10 12:21:57;;;;;;;112.18;59.33;;;26.60;72.40;;;;;;4928515;28;96124;-45
2023/09/10 12:24:23;;;;;;;112.50;59.38;;;26.60;72.30;;;;;;4936696;28;95841;-44
2023/09/10 12:26:48;;;;;;;112.03;59.22;;;26.60;72.10;;;;;;4942857;28;95737;-44
2023/09/10 12:29:14;;;;;;;112.00;58.97;;;26.70;72.00;;;;;;4940574;28;94468;-43
2023/09/10 12:31:41;;;;;;;112.07;59.08;;;26.70;72.10;;;;;;4945351;28;95576;-43